sensor_id;sensor_type;location;lat;lon;timestamp;P1;durP1;ratioP1;P2;durP2;ratioP2
13592;SDS011;6867;50.998;4.250;2022-07-23T00:01:52;10.88;;;9.27;;
13592;SDS011;6867;50.998;4.250;2022-07-23T00:04:18;15.68;;;10.93;;
13592;SDS011;6867;50.998;4.250;2022-07-23T00:06:45;15.32;;;10.63;;
13592;SDS011;6867;50.998;4.250;2022-07-23T00:09:12;16.25;;;10.20;;
13592;SDS011;6867;50.998;4.250;2022-07-23T00:11:38;15.68;;;10.88;;
13592;SDS011;6867;50.998;4.250;2022-07-23T00:14:05;17.42;;;10.85;;
13592;SDS011;6867;50.998;4.250;2022-07-23T00:16:32;17.67;;;11.60;;
13592;SDS011;6867;50.998;4.250;2022-07-23T00:19:00;21.15;;;13.73;;
13592;SDS011;6867;50.998;4.250;2022-07-23T00:21:27;17.40;;;12.10;;
13592;SDS011;6867;50.998;4.250;2022-07-23T00:23:54;21.40;;;11.95;;
13592;SDS011;6867;50.998;4.250;2022-07-23T00:26:21;16.50;;;10.95;;
13592;SDS011;6867;50.998;4.250;2022-07-23T00:28:47;15.88;;;11.27;;
13592;SDS011;6867;50.998;4.250;2022-07-23T00:31:14;16.17;;;11.07;;
13592;SDS011;6867;50.998;4.250;2022-07-23T00:33:41;13.88;;;10.65;;
13592;SDS011;6867;50.998;4.250;2022-07-23T00:36:09;18.60;;;12.55;;
13592;SDS011;6867;50.998;4.250;2022-07-23T00:38:35;16.77;;;11.68;;
13592;SDS011;6867;50.998;4.250;2022-07-23T00:41:02;18.83;;;12.10;;
13592;SDS011;6867;50.998;4.250;2022-07-23T00:43:29;13.57;;;9.93;;
13592;SDS011;6867;50.998;4.250;2022-07-23T00:45:55;19.48;;;12.30;;
13592;SDS011;6867;50.998;4.250;2022-07-23T00:48:22;16.00;;;11.85;;
13592;SDS011;6867;50.998;4.250;2022-07-23T00:50:49;17.35;;;11.45;;
13592;SDS011;6867;50.998;4.250;2022-07-23T00:53:17;17.25;;;11.80;;
13592;SDS011;6867;50.998;4.250;2022-07-23T00:55:46;17.83;;;11.43;;
13592;SDS011;6867;50.998;4.250;2022-07-23T00:58:13;15.85;;;11.60;;
13592;SDS011;6867;50.998;4.250;2022-07-23T01:00:41;17.55;;;11.73;;
13592;SDS011;6867;50.998;4.250;2022-07-23T01:03:08;17.73;;;11.80;;
13592;SDS011;6867;50.998;4.250;2022-07-23T01:05:35;17.48;;;11.85;;
13592;SDS011;6867;50.998;4.250;2022-07-23T01:08:02;19.17;;;11.25;;
13592;SDS011;6867;50.998;4.250;2022-07-23T01:10:30;17.38;;;11.60;;
13592;SDS011;6867;50.998;4.250;2022-07-23T01:12:57;12.30;;;8.20;;
13592;SDS011;6867;50.998;4.250;2022-07-23T01:15:24;10.68;;;6.18;;
13592;SDS011;6867;50.998;4.250;2022-07-23T01:17:51;8.40;;;6.68;;
13592;SDS011;6867;50.998;4.250;2022-07-23T01:20:18;12.43;;;8.10;;
13592;SDS011;6867;50.998;4.250;2022-07-23T01:22:46;13.95;;;10.70;;
13592;SDS011;6867;50.998;4.250;2022-07-23T01:25:14;16.50;;;11.23;;
13592;SDS011;6867;50.998;4.250;2022-07-23T01:27:41;17.13;;;11.93;;
13592;SDS011;6867;50.998;4.250;2022-07-23T01:30:08;16.08;;;11.50;;
13592;SDS011;6867;50.998;4.250;2022-07-23T01:32:36;13.98;;;9.68;;
13592;SDS011;6867;50.998;4.250;2022-07-23T01:35:03;10.10;;;8.02;;
13592;SDS011;6867;50.998;4.250;2022-07-23T01:37:31;9.80;;;7.75;;
13592;SDS011;6867;50.998;4.250;2022-07-23T01:39:59;9.82;;;7.47;;
13592;SDS011;6867;50.998;4.250;2022-07-23T01:42:25;11.35;;;7.72;;
13592;SDS011;6867;50.998;4.250;2022-07-23T01:44:52;11.63;;;8.95;;
13592;SDS011;6867;50.998;4.250;2022-07-23T01:47:19;11.63;;;8.15;;
13592;SDS011;6867;50.998;4.250;2022-07-23T01:49:46;9.13;;;6.75;;
13592;SDS011;6867;50.998;4.250;2022-07-23T01:52:13;9.98;;;6.78;;
13592;SDS011;6867;50.998;4.250;2022-07-23T01:54:39;8.50;;;6.53;;
13592;SDS011;6867;50.998;4.250;2022-07-23T01:57:07;10.13;;;6.47;;
13592;SDS011;6867;50.998;4.250;2022-07-23T01:59:34;8.10;;;7.03;;
13592;SDS011;6867;50.998;4.250;2022-07-23T02:02:02;8.10;;;6.13;;
13592;SDS011;6867;50.998;4.250;2022-07-23T02:04:30;12.02;;;8.23;;
13592;SDS011;6867;50.998;4.250;2022-07-23T02:07:00;11.02;;;6.95;;
13592;SDS011;6867;50.998;4.250;2022-07-23T02:09:27;10.23;;;7.43;;
13592;SDS011;6867;50.998;4.250;2022-07-23T02:11:54;8.38;;;5.70;;
13592;SDS011;6867;50.998;4.250;2022-07-23T02:14:22;9.73;;;7.20;;
13592;SDS011;6867;50.998;4.250;2022-07-23T02:16:48;9.60;;;6.88;;
13592;SDS011;6867;50.998;4.250;2022-07-23T02:19:15;9.33;;;7.07;;
13592;SDS011;6867;50.998;4.250;2022-07-23T02:21:42;9.65;;;7.45;;
13592;SDS011;6867;50.998;4.250;2022-07-23T02:24:08;10.77;;;8.00;;
13592;SDS011;6867;50.998;4.250;2022-07-23T02:26:35;9.00;;;7.13;;
13592;SDS011;6867;50.998;4.250;2022-07-23T02:29:02;10.98;;;7.13;;
13592;SDS011;6867;50.998;4.250;2022-07-23T02:31:31;9.70;;;7.45;;
13592;SDS011;6867;50.998;4.250;2022-07-23T02:33:58;8.60;;;6.22;;
13592;SDS011;6867;50.998;4.250;2022-07-23T02:36:25;7.63;;;6.22;;
13592;SDS011;6867;50.998;4.250;2022-07-23T02:38:52;11.47;;;7.80;;
13592;SDS011;6867;50.998;4.250;2022-07-23T02:41:21;11.80;;;8.30;;
13592;SDS011;6867;50.998;4.250;2022-07-23T02:43:48;12.67;;;8.57;;
13592;SDS011;6867;50.998;4.250;2022-07-23T02:46:15;11.05;;;7.95;;
13592;SDS011;6867;50.998;4.250;2022-07-23T02:48:43;13.48;;;8.77;;
13592;SDS011;6867;50.998;4.250;2022-07-23T02:51:09;13.40;;;8.63;;
13592;SDS011;6867;50.998;4.250;2022-07-23T02:53:36;14.77;;;8.50;;
13592;SDS011;6867;50.998;4.250;2022-07-23T02:56:03;13.07;;;6.00;;
13592;SDS011;6867;50.998;4.250;2022-07-23T02:58:30;9.27;;;6.67;;
13592;SDS011;6867;50.998;4.250;2022-07-23T03:00:56;8.57;;;6.40;;
13592;SDS011;6867;50.998;4.250;2022-07-23T03:03:23;9.93;;;6.63;;
13592;SDS011;6867;50.998;4.250;2022-07-23T03:05:51;7.53;;;6.27;;
13592;SDS011;6867;50.998;4.250;2022-07-23T03:08:18;8.93;;;6.20;;
13592;SDS011;6867;50.998;4.250;2022-07-23T03:10:44;10.37;;;6.73;;
13592;SDS011;6867;50.998;4.250;2022-07-23T03:13:11;10.03;;;7.87;;
13592;SDS011;6867;50.998;4.250;2022-07-23T03:15:38;17.80;;;11.13;;
13592;SDS011;6867;50.998;4.250;2022-07-23T03:18:04;16.77;;;10.83;;
13592;SDS011;6867;50.998;4.250;2022-07-23T03:20:31;14.17;;;9.43;;
13592;SDS011;6867;50.998;4.250;2022-07-23T03:22:59;13.90;;;10.17;;
13592;SDS011;6867;50.998;4.250;2022-07-23T03:25:26;12.40;;;8.23;;
13592;SDS011;6867;50.998;4.250;2022-07-23T03:27:53;10.87;;;6.93;;
13592;SDS011;6867;50.998;4.250;2022-07-23T03:30:19;9.07;;;6.90;;
13592;SDS011;6867;50.998;4.250;2022-07-23T03:32:46;5.90;;;5.10;;
13592;SDS011;6867;50.998;4.250;2022-07-23T03:35:13;8.13;;;6.63;;
13592;SDS011;6867;50.998;4.250;2022-07-23T03:37:39;12.00;;;7.77;;
13592;SDS011;6867;50.998;4.250;2022-07-23T03:40:08;13.07;;;7.87;;
13592;SDS011;6867;50.998;4.250;2022-07-23T03:42:35;11.87;;;7.40;;
13592;SDS011;6867;50.998;4.250;2022-07-23T03:45:05;12.20;;;8.07;;
13592;SDS011;6867;50.998;4.250;2022-07-23T03:47:32;14.30;;;8.50;;
13592;SDS011;6867;50.998;4.250;2022-07-23T03:49:58;8.77;;;6.80;;
13592;SDS011;6867;50.998;4.250;2022-07-23T03:52:25;11.50;;;6.90;;
13592;SDS011;6867;50.998;4.250;2022-07-23T03:54:52;9.10;;;7.00;;
13592;SDS011;6867;50.998;4.250;2022-07-23T03:57:20;11.37;;;7.53;;
13592;SDS011;6867;50.998;4.250;2022-07-23T03:59:46;9.03;;;6.50;;
13592;SDS011;6867;50.998;4.250;2022-07-23T04:02:13;12.50;;;9.00;;
13592;SDS011;6867;50.998;4.250;2022-07-23T04:04:40;12.17;;;7.97;;
13592;SDS011;6867;50.998;4.250;2022-07-23T04:07:07;12.13;;;7.20;;
13592;SDS011;6867;50.998;4.250;2022-07-23T04:09:34;8.70;;;6.60;;
13592;SDS011;6867;50.998;4.250;2022-07-23T04:12:00;10.73;;;6.77;;
13592;SDS011;6867;50.998;4.250;2022-07-23T04:14:28;9.30;;;6.87;;
13592;SDS011;6867;50.998;4.250;2022-07-23T04:16:55;10.67;;;7.20;;
13592;SDS011;6867;50.998;4.250;2022-07-23T04:19:22;8.17;;;5.93;;
13592;SDS011;6867;50.998;4.250;2022-07-23T04:21:48;11.45;;;6.45;;
13592;SDS011;6867;50.998;4.250;2022-07-23T04:24:15;10.37;;;7.10;;
13592;SDS011;6867;50.998;4.250;2022-07-23T04:26:42;8.93;;;6.13;;
13592;SDS011;6867;50.998;4.250;2022-07-23T04:29:09;9.07;;;7.20;;
13592;SDS011;6867;50.998;4.250;2022-07-23T04:31:37;10.47;;;7.40;;
13592;SDS011;6867;50.998;4.250;2022-07-23T04:34:04;8.27;;;6.23;;
13592;SDS011;6867;50.998;4.250;2022-07-23T04:36:31;8.93;;;6.20;;
13592;SDS011;6867;50.998;4.250;2022-07-23T04:38:57;8.27;;;5.13;;
13592;SDS011;6867;50.998;4.250;2022-07-23T04:41:24;7.93;;;6.13;;
13592;SDS011;6867;50.998;4.250;2022-07-23T04:43:51;6.17;;;4.87;;
13592;SDS011;6867;50.998;4.250;2022-07-23T04:46:17;6.97;;;4.50;;
13592;SDS011;6867;50.998;4.250;2022-07-23T04:48:46;5.97;;;4.90;;
13592;SDS011;6867;50.998;4.250;2022-07-23T04:51:12;8.10;;;6.07;;
13592;SDS011;6867;50.998;4.250;2022-07-23T04:53:39;8.60;;;6.13;;
13592;SDS011;6867;50.998;4.250;2022-07-23T04:56:06;6.57;;;5.07;;
13592;SDS011;6867;50.998;4.250;2022-07-23T04:58:33;6.95;;;4.55;;
13592;SDS011;6867;50.998;4.250;2022-07-23T05:01:00;7.45;;;5.32;;
13592;SDS011;6867;50.998;4.250;2022-07-23T05:03:26;9.05;;;6.25;;
13592;SDS011;6867;50.998;4.250;2022-07-23T05:05:55;7.70;;;5.63;;
13592;SDS011;6867;50.998;4.250;2022-07-23T05:08:21;10.80;;;7.03;;
13592;SDS011;6867;50.998;4.250;2022-07-23T05:10:48;10.95;;;7.43;;
13592;SDS011;6867;50.998;4.250;2022-07-23T05:13:15;12.15;;;7.18;;
13592;SDS011;6867;50.998;4.250;2022-07-23T05:15:43;13.07;;;8.50;;
13592;SDS011;6867;50.998;4.250;2022-07-23T05:18:10;14.00;;;9.27;;
13592;SDS011;6867;50.998;4.250;2022-07-23T05:20:37;13.43;;;9.30;;
13592;SDS011;6867;50.998;4.250;2022-07-23T05:23:05;12.30;;;8.15;;
13592;SDS011;6867;50.998;4.250;2022-07-23T05:25:31;17.77;;;10.52;;
13592;SDS011;6867;50.998;4.250;2022-07-23T05:27:58;14.63;;;9.43;;
13592;SDS011;6867;50.998;4.250;2022-07-23T05:30:25;16.00;;;10.80;;
13592;SDS011;6867;50.998;4.250;2022-07-23T05:32:51;18.23;;;11.48;;
13592;SDS011;6867;50.998;4.250;2022-07-23T05:35:18;15.68;;;10.85;;
13592;SDS011;6867;50.998;4.250;2022-07-23T05:37:45;12.45;;;8.40;;
13592;SDS011;6867;50.998;4.250;2022-07-23T05:40:13;14.98;;;8.70;;
13592;SDS011;6867;50.998;4.250;2022-07-23T05:42:40;16.42;;;9.75;;
13592;SDS011;6867;50.998;4.250;2022-07-23T05:45:07;12.70;;;8.85;;
13592;SDS011;6867;50.998;4.250;2022-07-23T05:47:41;13.38;;;8.93;;
13592;SDS011;6867;50.998;4.250;2022-07-23T05:50:09;15.30;;;9.63;;
13592;SDS011;6867;50.998;4.250;2022-07-23T05:52:37;15.32;;;9.57;;
13592;SDS011;6867;50.998;4.250;2022-07-23T05:55:04;15.38;;;8.55;;
13592;SDS011;6867;50.998;4.250;2022-07-23T05:57:33;15.18;;;9.07;;
13592;SDS011;6867;50.998;4.250;2022-07-23T05:59:59;12.32;;;9.15;;
13592;SDS011;6867;50.998;4.250;2022-07-23T06:02:26;11.93;;;9.07;;
13592;SDS011;6867;50.998;4.250;2022-07-23T06:04:53;11.32;;;8.52;;
13592;SDS011;6867;50.998;4.250;2022-07-23T06:07:20;14.25;;;8.35;;
13592;SDS011;6867;50.998;4.250;2022-07-23T06:09:46;11.75;;;7.88;;
13592;SDS011;6867;50.998;4.250;2022-07-23T06:12:14;10.98;;;8.27;;
13592;SDS011;6867;50.998;4.250;2022-07-23T06:14:42;12.23;;;7.60;;
13592;SDS011;6867;50.998;4.250;2022-07-23T06:17:09;9.75;;;7.65;;
13592;SDS011;6867;50.998;4.250;2022-07-23T06:19:36;13.50;;;8.30;;
13592;SDS011;6867;50.998;4.250;2022-07-23T06:22:02;11.68;;;7.60;;
13592;SDS011;6867;50.998;4.250;2022-07-23T06:24:29;12.35;;;8.40;;
13592;SDS011;6867;50.998;4.250;2022-07-23T06:26:56;11.68;;;8.32;;
13592;SDS011;6867;50.998;4.250;2022-07-23T06:29:22;11.82;;;8.90;;
13592;SDS011;6867;50.998;4.250;2022-07-23T06:31:50;9.85;;;7.82;;
13592;SDS011;6867;50.998;4.250;2022-07-23T06:34:17;12.73;;;8.77;;
13592;SDS011;6867;50.998;4.250;2022-07-23T06:36:44;12.73;;;9.43;;
13592;SDS011;6867;50.998;4.250;2022-07-23T06:39:10;12.15;;;8.40;;
13592;SDS011;6867;50.998;4.250;2022-07-23T06:41:37;12.23;;;8.80;;
13592;SDS011;6867;50.998;4.250;2022-07-23T06:44:04;12.40;;;9.55;;
13592;SDS011;6867;50.998;4.250;2022-07-23T06:46:31;14.38;;;9.20;;
13592;SDS011;6867;50.998;4.250;2022-07-23T06:48:59;11.98;;;8.32;;
13592;SDS011;6867;50.998;4.250;2022-07-23T06:51:25;12.68;;;9.18;;
13592;SDS011;6867;50.998;4.250;2022-07-23T06:53:52;12.95;;;9.85;;
13592;SDS011;6867;50.998;4.250;2022-07-23T06:56:19;11.30;;;9.18;;
13592;SDS011;6867;50.998;4.250;2022-07-23T06:58:46;17.35;;;9.75;;
13592;SDS011;6867;50.998;4.250;2022-07-23T07:01:12;12.07;;;10.27;;
13592;SDS011;6867;50.998;4.250;2022-07-23T07:03:39;12.18;;;9.20;;
13592;SDS011;6867;50.998;4.250;2022-07-23T07:06:07;11.65;;;8.60;;
13592;SDS011;6867;50.998;4.250;2022-07-23T07:08:34;11.95;;;8.43;;
13592;SDS011;6867;50.998;4.250;2022-07-23T07:11:01;13.10;;;8.93;;
13592;SDS011;6867;50.998;4.250;2022-07-23T07:13:27;14.02;;;8.25;;
13592;SDS011;6867;50.998;4.250;2022-07-23T07:15:54;12.20;;;8.55;;
13592;SDS011;6867;50.998;4.250;2022-07-23T07:18:21;11.77;;;8.63;;
13592;SDS011;6867;50.998;4.250;2022-07-23T07:20:48;12.07;;;8.45;;
13592;SDS011;6867;50.998;4.250;2022-07-23T07:23:16;11.40;;;8.07;;
13592;SDS011;6867;50.998;4.250;2022-07-23T07:25:43;11.35;;;8.38;;
13592;SDS011;6867;50.998;4.250;2022-07-23T07:28:09;10.45;;;8.05;;
13592;SDS011;6867;50.998;4.250;2022-07-23T07:30:36;12.80;;;8.05;;
13592;SDS011;6867;50.998;4.250;2022-07-23T07:33:03;12.15;;;7.80;;
13592;SDS011;6867;50.998;4.250;2022-07-23T07:35:29;12.73;;;7.13;;
13592;SDS011;6867;50.998;4.250;2022-07-23T07:37:57;9.32;;;7.20;;
13592;SDS011;6867;50.998;4.250;2022-07-23T07:40:25;11.52;;;7.60;;
13592;SDS011;6867;50.998;4.250;2022-07-23T07:42:53;8.55;;;6.53;;
13592;SDS011;6867;50.998;4.250;2022-07-23T07:45:22;13.25;;;7.97;;
13592;SDS011;6867;50.998;4.250;2022-07-23T07:47:50;14.30;;;6.97;;
13592;SDS011;6867;50.998;4.250;2022-07-23T07:50:17;8.63;;;7.45;;
13592;SDS011;6867;50.998;4.250;2022-07-23T07:52:44;11.68;;;7.25;;
13592;SDS011;6867;50.998;4.250;2022-07-23T07:55:11;8.07;;;6.93;;
13592;SDS011;6867;50.998;4.250;2022-07-23T07:57:40;8.38;;;7.18;;
13592;SDS011;6867;50.998;4.250;2022-07-23T08:00:08;9.60;;;7.00;;
13592;SDS011;6867;50.998;4.250;2022-07-23T08:02:40;7.90;;;6.32;;
13592;SDS011;6867;50.998;4.250;2022-07-23T08:05:08;8.10;;;6.63;;
13592;SDS011;6867;50.998;4.250;2022-07-23T08:07:35;12.35;;;7.38;;
13592;SDS011;6867;50.998;4.250;2022-07-23T08:10:02;11.00;;;7.53;;
13592;SDS011;6867;50.998;4.250;2022-07-23T08:12:37;8.63;;;6.57;;
13592;SDS011;6867;50.998;4.250;2022-07-23T08:15:06;9.50;;;5.70;;
13592;SDS011;6867;50.998;4.250;2022-07-23T08:17:34;10.93;;;6.25;;
13592;SDS011;6867;50.998;4.250;2022-07-23T08:20:01;8.45;;;5.80;;
13592;SDS011;6867;50.998;4.250;2022-07-23T08:22:41;8.15;;;6.38;;
13592;SDS011;6867;50.998;4.250;2022-07-23T08:25:08;8.57;;;6.32;;
13592;SDS011;6867;50.998;4.250;2022-07-23T08:27:35;9.20;;;6.45;;
13592;SDS011;6867;50.998;4.250;2022-07-23T08:30:02;8.82;;;6.38;;
13592;SDS011;6867;50.998;4.250;2022-07-23T08:32:31;9.15;;;5.68;;
13592;SDS011;6867;50.998;4.250;2022-07-23T08:34:58;11.63;;;6.13;;
13592;SDS011;6867;50.998;4.250;2022-07-23T08:37:24;9.68;;;5.60;;
13592;SDS011;6867;50.998;4.250;2022-07-23T08:39:51;6.60;;;5.00;;
13592;SDS011;6867;50.998;4.250;2022-07-23T08:42:18;8.50;;;6.10;;
13592;SDS011;6867;50.998;4.250;2022-07-23T08:44:45;7.78;;;5.85;;
13592;SDS011;6867;50.998;4.250;2022-07-23T08:47:12;7.70;;;5.30;;
13592;SDS011;6867;50.998;4.250;2022-07-23T08:49:42;8.00;;;5.90;;
13592;SDS011;6867;50.998;4.250;2022-07-23T08:52:10;7.32;;;6.07;;
13592;SDS011;6867;50.998;4.250;2022-07-23T08:54:37;7.20;;;4.78;;
13592;SDS011;6867;50.998;4.250;2022-07-23T08:57:04;7.80;;;5.25;;
13592;SDS011;6867;50.998;4.250;2022-07-23T08:59:31;6.95;;;4.53;;
13592;SDS011;6867;50.998;4.250;2022-07-23T09:01:58;5.47;;;4.63;;
13592;SDS011;6867;50.998;4.250;2022-07-23T09:04:25;6.70;;;4.40;;
13592;SDS011;6867;50.998;4.250;2022-07-23T09:06:53;8.73;;;5.40;;
13592;SDS011;6867;50.998;4.250;2022-07-23T09:09:21;6.13;;;4.53;;
13592;SDS011;6867;50.998;4.250;2022-07-23T09:12:01;5.97;;;5.30;;
13592;SDS011;6867;50.998;4.250;2022-07-23T09:14:36;7.47;;;5.05;;
13592;SDS011;6867;50.998;4.250;2022-07-23T09:17:10;6.50;;;5.40;;
13592;SDS011;6867;50.998;4.250;2022-07-23T09:19:38;5.25;;;4.40;;
13592;SDS011;6867;50.998;4.250;2022-07-23T09:22:20;6.13;;;5.18;;
13592;SDS011;6867;50.998;4.250;2022-07-23T09:25:08;8.30;;;4.70;;
13592;SDS011;6867;50.998;4.250;2022-07-23T09:27:50;5.22;;;4.30;;
13592;SDS011;6867;50.998;4.250;2022-07-23T09:30:19;6.10;;;3.42;;
13592;SDS011;6867;50.998;4.250;2022-07-23T09:35:44;8.50;;;4.25;;
13592;SDS011;6867;50.998;4.250;2022-07-23T09:38:14;5.70;;;4.20;;
13592;SDS011;6867;50.998;4.250;2022-07-23T09:40:41;5.70;;;4.35;;
13592;SDS011;6867;50.998;4.250;2022-07-23T09:43:09;8.38;;;4.90;;
13592;SDS011;6867;50.998;4.250;2022-07-23T09:45:36;7.20;;;5.07;;
13592;SDS011;6867;50.998;4.250;2022-07-23T09:48:11;6.57;;;4.88;;
13592;SDS011;6867;50.998;4.250;2022-07-23T09:50:39;4.53;;;3.85;;
13592;SDS011;6867;50.998;4.250;2022-07-23T09:53:06;6.28;;;4.63;;
13592;SDS011;6867;50.998;4.250;2022-07-23T09:55:35;6.00;;;3.80;;
13592;SDS011;6867;50.998;4.250;2022-07-23T09:58:03;4.13;;;3.72;;
13592;SDS011;6867;50.998;4.250;2022-07-23T10:00:31;7.53;;;4.45;;
13592;SDS011;6867;50.998;4.250;2022-07-23T10:02:59;5.30;;;4.35;;
13592;SDS011;6867;50.998;4.250;2022-07-23T10:05:26;5.15;;;4.00;;
13592;SDS011;6867;50.998;4.250;2022-07-23T10:07:54;4.40;;;3.45;;
13592;SDS011;6867;50.998;4.250;2022-07-23T10:10:21;4.55;;;3.70;;
13592;SDS011;6867;50.998;4.250;2022-07-23T10:12:53;5.60;;;4.38;;
13592;SDS011;6867;50.998;4.250;2022-07-23T10:15:43;6.20;;;4.45;;
13592;SDS011;6867;50.998;4.250;2022-07-23T10:18:10;4.28;;;3.88;;
13592;SDS011;6867;50.998;4.250;2022-07-23T10:20:38;5.40;;;4.43;;
13592;SDS011;6867;50.998;4.250;2022-07-23T10:23:18;5.82;;;3.78;;
13592;SDS011;6867;50.998;4.250;2022-07-23T10:25:51;7.05;;;3.60;;
13592;SDS011;6867;50.998;4.250;2022-07-23T10:28:42;6.13;;;3.55;;
13592;SDS011;6867;50.998;4.250;2022-07-23T10:31:24;4.75;;;3.50;;
13592;SDS011;6867;50.998;4.250;2022-07-23T10:34:01;5.32;;;3.90;;
13592;SDS011;6867;50.998;4.250;2022-07-23T10:36:37;4.07;;;3.15;;
13592;SDS011;6867;50.998;4.250;2022-07-23T10:39:10;4.80;;;3.42;;
13592;SDS011;6867;50.998;4.250;2022-07-23T10:41:43;6.40;;;3.42;;
13592;SDS011;6867;50.998;4.250;2022-07-23T10:44:12;3.60;;;2.83;;
13592;SDS011;6867;50.998;4.250;2022-07-23T10:46:53;4.63;;;3.28;;
13592;SDS011;6867;50.998;4.250;2022-07-23T10:49:27;3.17;;;2.55;;
13592;SDS011;6867;50.998;4.250;2022-07-23T10:54:48;5.60;;;2.70;;
13592;SDS011;6867;50.998;4.250;2022-07-23T10:57:16;2.95;;;2.38;;
13592;SDS011;6867;50.998;4.250;2022-07-23T11:02:47;3.97;;;3.03;;
13592;SDS011;6867;50.998;4.250;2022-07-23T11:05:15;4.18;;;2.97;;
13592;SDS011;6867;50.998;4.250;2022-07-23T11:10:42;3.58;;;2.70;;
13592;SDS011;6867;50.998;4.250;2022-07-23T11:13:25;2.60;;;2.40;;
13592;SDS011;6867;50.998;4.250;2022-07-23T11:16:11;4.90;;;2.20;;
13592;SDS011;6867;50.998;4.250;2022-07-23T11:21:46;2.78;;;2.58;;
13592;SDS011;6867;50.998;4.250;2022-07-23T11:24:15;2.80;;;2.20;;
13592;SDS011;6867;50.998;4.250;2022-07-23T11:26:44;1.67;;;1.58;;
13592;SDS011;6867;50.998;4.250;2022-07-23T11:32:06;2.00;;;1.80;;
13592;SDS011;6867;50.998;4.250;2022-07-23T11:34:35;2.78;;;1.75;;
13592;SDS011;6867;50.998;4.250;2022-07-23T11:37:06;2.50;;;2.05;;
13592;SDS011;6867;50.998;4.250;2022-07-23T11:39:34;2.40;;;1.75;;
13592;SDS011;6867;50.998;4.250;2022-07-23T11:42:02;2.45;;;2.00;;
13592;SDS011;6867;50.998;4.250;2022-07-23T11:44:31;2.65;;;1.70;;
13592;SDS011;6867;50.998;4.250;2022-07-23T11:47:00;1.95;;;1.73;;
13592;SDS011;6867;50.998;4.250;2022-07-23T11:49:30;2.28;;;1.98;;
13592;SDS011;6867;50.998;4.250;2022-07-23T11:52:04;1.60;;;1.50;;
13592;SDS011;6867;50.998;4.250;2022-07-23T11:54:31;1.70;;;1.60;;
13592;SDS011;6867;50.998;4.250;2022-07-23T11:56:58;2.20;;;1.70;;
13592;SDS011;6867;50.998;4.250;2022-07-23T11:59:26;2.05;;;1.80;;
13592;SDS011;6867;50.998;4.250;2022-07-23T12:01:57;1.70;;;1.60;;
13592;SDS011;6867;50.998;4.250;2022-07-23T12:04:24;5.65;;;2.42;;
13592;SDS011;6867;50.998;4.250;2022-07-23T12:06:52;1.95;;;1.73;;
13592;SDS011;6867;50.998;4.250;2022-07-23T12:09:19;2.97;;;2.13;;
13592;SDS011;6867;50.998;4.250;2022-07-23T12:11:58;3.17;;;2.00;;
13592;SDS011;6867;50.998;4.250;2022-07-23T12:14:26;2.97;;;2.22;;
13592;SDS011;6867;50.998;4.250;2022-07-23T12:17:08;3.92;;;2.13;;
13592;SDS011;6867;50.998;4.250;2022-07-23T12:19:35;3.30;;;1.77;;
13592;SDS011;6867;50.998;4.250;2022-07-23T12:22:03;2.88;;;2.22;;
13592;SDS011;6867;50.998;4.250;2022-07-23T12:24:30;2.45;;;1.73;;
13592;SDS011;6867;50.998;4.250;2022-07-23T12:29:46;2.58;;;1.80;;
13592;SDS011;6867;50.998;4.250;2022-07-23T12:32:16;4.43;;;2.15;;
13592;SDS011;6867;50.998;4.250;2022-07-23T12:34:45;2.20;;;1.95;;
13592;SDS011;6867;50.998;4.250;2022-07-23T12:37:26;2.50;;;2.30;;
13592;SDS011;6867;50.998;4.250;2022-07-23T12:39:56;2.53;;;2.28;;
13592;SDS011;6867;50.998;4.250;2022-07-23T12:42:23;2.55;;;2.35;;
13592;SDS011;6867;50.998;4.250;2022-07-23T12:45:06;3.40;;;2.08;;
13592;SDS011;6867;50.998;4.250;2022-07-23T12:47:55;5.63;;;2.30;;
13592;SDS011;6867;50.998;4.250;2022-07-23T12:50:34;3.92;;;2.58;;
13592;SDS011;6867;50.998;4.250;2022-07-23T12:53:08;2.95;;;2.40;;
13592;SDS011;6867;50.998;4.250;2022-07-23T12:55:37;4.00;;;2.03;;
13592;SDS011;6867;50.998;4.250;2022-07-23T12:58:05;2.40;;;2.20;;
13592;SDS011;6867;50.998;4.250;2022-07-23T13:03:30;3.45;;;2.38;;
13592;SDS011;6867;50.998;4.250;2022-07-23T13:05:59;3.63;;;2.35;;
13592;SDS011;6867;50.998;4.250;2022-07-23T13:08:30;4.93;;;2.75;;
13592;SDS011;6867;50.998;4.250;2022-07-23T13:10:59;3.42;;;2.67;;
13592;SDS011;6867;50.998;4.250;2022-07-23T13:13:26;4.05;;;2.80;;
13592;SDS011;6867;50.998;4.250;2022-07-23T13:15:55;3.72;;;2.80;;
13592;SDS011;6867;50.998;4.250;2022-07-23T13:18:23;4.07;;;2.70;;
13592;SDS011;6867;50.998;4.250;2022-07-23T13:20:51;2.90;;;2.47;;
13592;SDS011;6867;50.998;4.250;2022-07-23T13:23:18;3.30;;;2.60;;
13592;SDS011;6867;50.998;4.250;2022-07-23T13:25:46;2.65;;;2.45;;
13592;SDS011;6867;50.998;4.250;2022-07-23T13:28:14;4.93;;;2.63;;
13592;SDS011;6867;50.998;4.250;2022-07-23T13:30:42;4.93;;;2.50;;
13592;SDS011;6867;50.998;4.250;2022-07-23T13:33:10;3.92;;;2.60;;
13592;SDS011;6867;50.998;4.250;2022-07-23T13:35:36;3.42;;;2.42;;
13592;SDS011;6867;50.998;4.250;2022-07-23T13:38:04;3.08;;;2.30;;
13592;SDS011;6867;50.998;4.250;2022-07-23T13:40:33;4.13;;;2.72;;
13592;SDS011;6867;50.998;4.250;2022-07-23T13:43:02;4.03;;;2.80;;
13592;SDS011;6867;50.998;4.250;2022-07-23T13:45:28;3.15;;;2.72;;
13592;SDS011;6867;50.998;4.250;2022-07-23T13:47:55;3.90;;;2.92;;
13592;SDS011;6867;50.998;4.250;2022-07-23T13:50:22;2.50;;;2.30;;
13592;SDS011;6867;50.998;4.250;2022-07-23T13:52:49;3.83;;;2.72;;
13592;SDS011;6867;50.998;4.250;2022-07-23T13:55:16;4.00;;;2.85;;
13592;SDS011;6867;50.998;4.250;2022-07-23T13:57:43;3.13;;;2.65;;
13592;SDS011;6867;50.998;4.250;2022-07-23T14:00:11;3.88;;;3.08;;
13592;SDS011;6867;50.998;4.250;2022-07-23T14:02:39;3.95;;;2.90;;
13592;SDS011;6867;50.998;4.250;2022-07-23T14:05:06;5.65;;;2.50;;
13592;SDS011;6867;50.998;4.250;2022-07-23T14:07:34;7.93;;;2.50;;
13592;SDS011;6867;50.998;4.250;2022-07-23T14:10:02;3.58;;;2.70;;
13592;SDS011;6867;50.998;4.250;2022-07-23T14:12:30;4.13;;;2.63;;
13592;SDS011;6867;50.998;4.250;2022-07-23T14:14:57;3.65;;;2.50;;
13592;SDS011;6867;50.998;4.250;2022-07-23T14:17:25;4.03;;;2.90;;
13592;SDS011;6867;50.998;4.250;2022-07-23T14:19:51;4.55;;;3.00;;
13592;SDS011;6867;50.998;4.250;2022-07-23T14:22:18;5.65;;;2.88;;
13592;SDS011;6867;50.998;4.250;2022-07-23T14:24:45;3.05;;;2.40;;
13592;SDS011;6867;50.998;4.250;2022-07-23T14:27:11;3.03;;;2.72;;
13592;SDS011;6867;50.998;4.250;2022-07-23T14:29:38;3.70;;;2.67;;
13592;SDS011;6867;50.998;4.250;2022-07-23T14:32:05;2.60;;;2.40;;
13592;SDS011;6867;50.998;4.250;2022-07-23T14:34:33;7.35;;;3.22;;
13592;SDS011;6867;50.998;4.250;2022-07-23T14:37:00;4.10;;;2.60;;
13592;SDS011;6867;50.998;4.250;2022-07-23T14:39:27;2.97;;;2.55;;
13592;SDS011;6867;50.998;4.250;2022-07-23T14:41:54;3.25;;;2.95;;
13592;SDS011;6867;50.998;4.250;2022-07-23T14:44:21;3.22;;;2.92;;
13592;SDS011;6867;50.998;4.250;2022-07-23T14:46:47;3.10;;;2.80;;
13592;SDS011;6867;50.998;4.250;2022-07-23T14:49:14;3.90;;;3.22;;
13592;SDS011;6867;50.998;4.250;2022-07-23T14:51:42;4.32;;;2.95;;
13592;SDS011;6867;50.998;4.250;2022-07-23T14:54:09;4.70;;;3.05;;
13592;SDS011;6867;50.998;4.250;2022-07-23T14:56:36;3.85;;;3.22;;
13592;SDS011;6867;50.998;4.250;2022-07-23T14:59:03;4.00;;;3.28;;
13592;SDS011;6867;50.998;4.250;2022-07-23T15:01:30;3.97;;;3.20;;
13592;SDS011;6867;50.998;4.250;2022-07-23T15:03:56;3.78;;;3.10;;
13592;SDS011;6867;50.998;4.250;2022-07-23T15:06:23;4.13;;;2.90;;
13592;SDS011;6867;50.998;4.250;2022-07-23T15:08:51;3.45;;;2.95;;
13592;SDS011;6867;50.998;4.250;2022-07-23T15:11:18;4.55;;;2.97;;
13592;SDS011;6867;50.998;4.250;2022-07-23T15:13:45;4.70;;;3.47;;
13592;SDS011;6867;50.998;4.250;2022-07-23T15:16:11;3.58;;;3.10;;
13592;SDS011;6867;50.998;4.250;2022-07-23T15:18:38;3.67;;;3.03;;
13592;SDS011;6867;50.998;4.250;2022-07-23T15:21:05;6.00;;;3.50;;
13592;SDS011;6867;50.998;4.250;2022-07-23T15:23:32;4.03;;;3.20;;
13592;SDS011;6867;50.998;4.250;2022-07-23T15:26:01;3.80;;;3.20;;